PWSweather.com
Personal Weather Stations
Station Observations
WAREHAM1
West Wareham, MA 02576

West Wareham, MA 02576

Lat: 41.7961059, Lon: -70.775612

Elevation: 88

Station Type: Davis Vantage Vue

http://www.gateway2capecod.net

Latest ConditionsUpdated 4:40:56 PM EST Sunday, Jan 19, 2020
Currently Today's Max Today's Min Today's Average
Temperature 40.3°F4.6°C 43.7°F6.5°C 32.7°F0.4°C 38.3°F3.5°C
Dew Point 26.6°F-3.0°C 37.4°F3.0°C 26.6°F-3.0°C 33.0°F0.6°C
Winds 2.0 mph NW3.2 kmh NW 2.9 mph -4.7 kmh - - 0.7 mph 1.1 kmh
Wind Gusts 9.0 mph14.5 kmh 15.0 mph24.1 kmh - -
Humidity 58% 97% 54% 83%
Pressure 29.72 in1006.4 mb 29.76 in1007.8 mb 29.62 in1003.0 mb -
Precipitation - 0.27 in6.9 mm - -
Hour Temp Dew Point Humidity Winds Wind Gusts Pressure Precip Precip Rate Daily Precip Total
04:40 PM 40.3°F4.6°C 26.6°F-3.0°C 58% 2.0 mph NW3.2 kmh NW 9.0 mph14.5 kmh 29.72 in1006.4 mb 0.01 in0.3 mm 0.00 in0.0 mm 0.27 in6.9 mm
04:30 PM 40.5°F4.7°C 27.3°F-2.6°C 59% 0.9 mph WNW1.4 kmh WNW 6.9 mph11.1 kmh 29.71 in1006.1 mb 0.01 in0.3 mm 0.06 in1.5 mm 0.27 in6.9 mm
04:20 PM 40.6°F4.8°C 27.5°F-2.5°C 59% Calm Calm 2.9 mph4.7 kmh 29.71 in1006.1 mb 0.00 in0.0 mm 0.00 in0.0 mm 0.26 in6.6 mm
04:10 PM 40.8°F4.9°C 27.1°F-2.7°C 58% 0.9 mph NW1.4 kmh NW 4.0 mph6.4 kmh 29.70 in1005.8 mb 0.00 in0.0 mm 0.00 in0.0 mm 0.26 in6.6 mm
04:00 PM 41.2°F5.1°C 27.1°F-2.7°C 57% 0.9 mph WNW1.4 kmh WNW 8.9 mph14.3 kmh 29.70 in1005.8 mb 0.00 in0.0 mm 0.00 in0.0 mm 0.26 in6.6 mm
03:50 PM 41.4°F5.2°C 27.3°F-2.6°C 57% 0.9 mph WNW1.4 kmh WNW 4.0 mph6.4 kmh 29.70 in1005.8 mb 0.00 in0.0 mm 0.00 in0.0 mm 0.26 in6.6 mm
03:40 PM 41.7°F5.4°C 27.1°F-2.7°C 56% 2.0 mph NW3.2 kmh NW 9.0 mph14.5 kmh 29.70 in1005.8 mb 0.00 in0.0 mm 0.00 in0.0 mm 0.26 in6.6 mm
03:30 PM 41.9°F5.5°C 27.3°F-2.6°C 56% 2.0 mph W3.2 kmh W 14.0 mph22.5 kmh 29.69 in1005.4 mb 0.01 in0.3 mm 0.00 in0.0 mm 0.26 in6.6 mm
03:20 PM 42.3°F5.7°C 27.7°F-2.4°C 56% 2.9 mph WNW4.7 kmh WNW 12.0 mph19.3 kmh 29.69 in1005.4 mb 0.01 in0.3 mm 0.00 in0.0 mm 0.26 in6.6 mm
03:10 PM 42.3°F5.7°C 27.7°F-2.4°C 56% 2.9 mph WSW4.7 kmh WSW 12.1 mph19.5 kmh 29.68 in1005.1 mb 0.01 in0.3 mm 0.00 in0.0 mm 0.26 in6.6 mm
03:00 PM 42.4°F5.8°C 28.2°F-2.1°C 57% 0.9 mph WSW1.4 kmh WSW 9.0 mph14.5 kmh 29.67 in1004.7 mb 0.01 in0.3 mm 0.00 in0.0 mm 0.26 in6.6 mm
02:50 PM 42.3°F5.7°C 28.6°F-1.9°C 58% 2.0 mph WNW3.2 kmh WNW 11.0 mph17.7 kmh 29.67 in1004.7 mb 0.01 in0.3 mm 0.00 in0.0 mm 0.26 in6.6 mm
02:40 PM 42.1°F5.6°C 28.4°F-2.0°C 58% 0.9 mph WNW1.4 kmh WNW 6.9 mph11.1 kmh 29.67 in1004.7 mb 0.02 in0.5 mm 0.06 in1.5 mm 0.26 in6.6 mm
02:30 PM 42.3°F5.7°C 28.0°F-2.2°C 57% 2.0 mph NW3.2 kmh NW 8.1 mph13.0 kmh 29.66 in1004.4 mb 0.01 in0.3 mm 0.00 in0.0 mm 0.25 in6.4 mm
02:20 PM 43.0°F6.1°C 27.9°F-2.3°C 55% 2.9 mph WNW4.7 kmh WNW 12.1 mph19.5 kmh 29.65 in1004.1 mb 0.01 in0.3 mm 0.00 in0.0 mm 0.25 in6.4 mm
02:10 PM 43.5°F6.4°C 28.4°F-2.0°C 55% 2.0 mph WNW3.2 kmh WNW 9.0 mph14.5 kmh 29.65 in1004.1 mb 0.01 in0.3 mm 0.00 in0.0 mm 0.25 in6.4 mm
02:00 PM 43.5°F6.4°C 28.4°F-2.0°C 55% 2.0 mph W3.2 kmh W 9.0 mph14.5 kmh 29.64 in1003.7 mb 0.02 in0.5 mm 0.00 in0.0 mm 0.25 in6.4 mm
01:50 PM 43.7°F6.5°C 28.6°F-1.9°C 55% 0.9 mph WNW1.4 kmh WNW 5.0 mph8.0 kmh 29.65 in1004.1 mb 0.02 in0.5 mm 0.00 in0.0 mm 0.25 in6.4 mm
01:40 PM 43.7°F6.5°C 28.2°F-2.1°C 54% 2.0 mph ENE3.2 kmh ENE 15.0 mph24.1 kmh 29.64 in1003.7 mb 0.02 in0.5 mm 0.00 in0.0 mm 0.24 in6.1 mm
01:30 PM 43.7°F6.5°C 28.6°F-1.9°C 55% 2.0 mph NW3.2 kmh NW 10.1 mph16.3 kmh 29.65 in1004.1 mb 0.02 in0.5 mm 0.00 in0.0 mm 0.24 in6.1 mm
01:20 PM 43.5°F6.4°C 28.9°F-1.7°C 56% 2.9 mph WNW4.7 kmh WNW 11.0 mph17.7 kmh 29.64 in1003.7 mb 0.02 in0.5 mm 0.00 in0.0 mm 0.24 in6.1 mm
01:10 PM 43.5°F6.4°C 29.3°F-1.5°C 57% 2.9 mph WNW4.7 kmh WNW 11.0 mph17.7 kmh 29.64 in1003.7 mb 0.03 in0.8 mm 0.06 in1.5 mm 0.24 in6.1 mm
01:00 PM 43.7°F6.5°C 29.8°F-1.2°C 58% 2.9 mph NW4.7 kmh NW 12.1 mph19.5 kmh 29.64 in1003.7 mb 0.02 in0.5 mm 0.00 in0.0 mm 0.23 in5.8 mm
12:50 PM 43.5°F6.4°C 31.3°F-0.4°C 62% 2.0 mph WSW3.2 kmh WSW 11.0 mph17.7 kmh 29.64 in1003.7 mb 0.03 in0.8 mm 0.06 in1.5 mm 0.23 in5.8 mm
12:40 PM 43.7°F6.5°C 31.1°F-0.5°C 61% 0.9 mph NW1.4 kmh NW 10.0 mph16.1 kmh 29.65 in1004.1 mb 0.02 in0.5 mm 0.00 in0.0 mm 0.22 in5.6 mm
12:30 PM 43.2°F6.2°C 31.1°F-0.5°C 62% 2.9 mph W4.7 kmh W 11.0 mph17.7 kmh 29.65 in1004.1 mb 0.03 in0.8 mm 0.00 in0.0 mm 0.22 in5.6 mm
12:20 PM 43.0°F6.1°C 31.6°F-0.2°C 64% 2.9 mph NW4.7 kmh NW 8.9 mph14.3 kmh 29.64 in1003.7 mb 0.03 in0.8 mm 0.06 in1.5 mm 0.22 in5.6 mm
12:10 PM 43.0°F6.1°C 32.0°F0.0°C 65% 2.9 mph W4.7 kmh W 11.0 mph17.7 kmh 29.64 in1003.7 mb 0.02 in0.5 mm 0.00 in0.0 mm 0.21 in5.3 mm
12:00 PM 42.6°F5.9°C 31.6°F-0.2°C 65% 2.9 mph SW4.7 kmh SW 13.0 mph20.9 kmh 29.65 in1004.1 mb 0.03 in0.8 mm 0.01 in0.3 mm 0.21 in5.3 mm
11:50 AM 42.6°F5.9°C 32.0°F0.0°C 66% 2.9 mph WSW4.7 kmh WSW 12.1 mph19.5 kmh 29.64 in1003.7 mb 0.02 in0.5 mm 0.00 in0.0 mm 0.20 in5.1 mm
11:40 AM 42.4°F5.8°C 32.7°F0.4°C 68% 2.0 mph SW3.2 kmh SW 13.0 mph20.9 kmh 29.65 in1004.1 mb 0.02 in0.5 mm 0.00 in0.0 mm 0.20 in5.1 mm
11:30 AM 42.4°F5.8°C 33.1°F0.6°C 69% 2.0 mph W3.2 kmh W 8.1 mph13.0 kmh 29.65 in1004.1 mb 0.02 in0.5 mm 0.00 in0.0 mm 0.19 in4.8 mm
11:20 AM 42.1°F5.6°C 33.4°F0.8°C 71% 0.9 mph WSW1.4 kmh WSW 8.9 mph14.3 kmh 29.65 in1004.1 mb 0.02 in0.5 mm 0.00 in0.0 mm 0.19 in4.8 mm
11:10 AM 41.7°F5.4°C 33.4°F0.8°C 72% 2.0 mph NW3.2 kmh NW 14.1 mph22.7 kmh 29.65 in1004.1 mb 0.03 in0.8 mm 0.06 in1.5 mm 0.19 in4.8 mm
11:00 AM 41.4°F5.2°C 33.6°F0.9°C 74% 2.0 mph WNW3.2 kmh WNW 9.0 mph14.5 kmh 29.65 in1004.1 mb 0.02 in0.5 mm 0.00 in0.0 mm 0.18 in4.6 mm
10:50 AM 40.8°F4.9°C 33.4°F0.8°C 75% 2.0 mph NW3.2 kmh NW 10.1 mph16.3 kmh 29.66 in1004.4 mb 0.03 in0.8 mm 0.00 in0.0 mm 0.18 in4.6 mm
10:40 AM 40.6°F4.8°C 34.0°F1.1°C 77% 0.9 mph WSW1.4 kmh WSW 11.0 mph17.7 kmh 29.66 in1004.4 mb 0.03 in0.8 mm 0.06 in1.5 mm 0.18 in4.6 mm
10:30 AM 40.3°F4.6°C 35.2°F1.8°C 82% 0.9 mph W1.4 kmh W 8.0 mph12.9 kmh 29.67 in1004.7 mb 0.02 in0.5 mm 0.00 in0.0 mm 0.17 in4.3 mm
10:20 AM 39.6°F4.2°C 36.3°F2.4°C 88% 0.9 mph WNW1.4 kmh WNW 8.1 mph13.0 kmh 29.67 in1004.7 mb 0.02 in0.5 mm 0.00 in0.0 mm 0.17 in4.3 mm
10:10 AM 38.7°F3.7°C 37.4°F3.0°C 95% Calm Calm 8.1 mph13.0 kmh 29.66 in1004.4 mb 0.02 in0.5 mm 0.00 in0.0 mm 0.16 in4.1 mm
10:00 AM 37.9°F3.3°C 36.9°F2.7°C 96% Calm Calm 1.0 mph1.6 kmh 29.67 in1004.7 mb 0.02 in0.5 mm 0.01 in0.3 mm 0.16 in4.1 mm
09:50 AM 37.6°F3.1°C 36.9°F2.7°C 97% Calm Calm -- 29.67 in1004.7 mb 0.01 in0.3 mm 0.00 in0.0 mm 0.15 in3.8 mm
09:40 AM 37.2°F2.9°C 36.5°F2.5°C 97% Calm Calm -- 29.66 in1004.4 mb 0.01 in0.3 mm 0.00 in0.0 mm 0.15 in3.8 mm
09:30 AM 36.9°F2.7°C 36.1°F2.3°C 97% Calm Calm -- 29.66 in1004.4 mb 0.01 in0.3 mm 0.00 in0.0 mm 0.15 in3.8 mm
09:20 AM 36.9°F2.7°C 36.1°F2.3°C 97% Calm Calm -- 29.66 in1004.4 mb 0.01 in0.3 mm 0.06 in1.5 mm 0.15 in3.8 mm
09:10 AM 36.3°F2.4°C 35.6°F2.0°C 97% Calm Calm -- 29.66 in1004.4 mb 0.00 in0.0 mm 0.00 in0.0 mm 0.14 in3.6 mm
09:00 AM 36.0°F2.2°C 35.2°F1.8°C 97% Calm Calm -- 29.66 in1004.4 mb 0.00 in0.0 mm 0.00 in0.0 mm 0.14 in3.6 mm
08:49 AM 35.4°F1.9°C 34.7°F1.5°C 97% Calm Calm -- 29.66 in1004.4 mb 0.01 in0.3 mm 0.00 in0.0 mm 0.14 in3.6 mm
08:39 AM 35.4°F1.9°C 34.7°F1.5°C 97% Calm Calm -- 29.67 in1004.7 mb 0.01 in0.3 mm 0.00 in0.0 mm 0.14 in3.6 mm
08:29 AM 35.4°F1.9°C 34.7°F1.5°C 97% Calm Calm -- 29.65 in1004.1 mb 0.01 in0.3 mm 0.00 in0.0 mm 0.14 in3.6 mm
08:19 AM 35.8°F2.1°C 35.1°F1.7°C 97% Calm Calm -- 29.65 in1004.1 mb 0.02 in0.5 mm 0.00 in0.0 mm 0.14 in3.6 mm
08:09 AM 35.8°F2.1°C 35.1°F1.7°C 97% Calm Calm -- 29.65 in1004.1 mb 0.02 in0.5 mm 0.00 in0.0 mm 0.14 in3.6 mm
07:59 AM 36.0°F2.2°C 35.2°F1.8°C 97% Calm Calm -- 29.64 in1003.7 mb 0.02 in0.5 mm 0.00 in0.0 mm 0.14 in3.6 mm
07:49 AM 36.0°F2.2°C 35.2°F1.8°C 97% Calm Calm -- 29.65 in1004.1 mb 0.02 in0.5 mm 0.00 in0.0 mm 0.13 in3.3 mm
07:39 AM 36.1°F2.3°C 35.4°F1.9°C 97% Calm Calm -- 29.65 in1004.1 mb 0.02 in0.5 mm 0.00 in0.0 mm 0.13 in3.3 mm
07:29 AM 36.0°F2.2°C 35.2°F1.8°C 97% Calm Calm -- 29.65 in1004.1 mb 0.02 in0.5 mm 0.00 in0.0 mm 0.13 in3.3 mm
07:19 AM 36.0°F2.2°C 35.2°F1.8°C 97% Calm Calm -- 29.64 in1003.7 mb 0.02 in0.5 mm 0.00 in0.0 mm 0.12 in3.0 mm
07:09 AM 36.1°F2.3°C 35.4°F1.9°C 97% Calm Calm -- 29.64 in1003.7 mb 0.02 in0.5 mm 0.00 in0.0 mm 0.12 in3.0 mm
06:59 AM 36.1°F2.3°C 35.4°F1.9°C 97% Calm Calm -- 29.64 in1003.7 mb 0.02 in0.5 mm 0.00 in0.0 mm 0.12 in3.0 mm
06:49 AM 36.1°F2.3°C 35.4°F1.9°C 97% Calm Calm -- 29.64 in1003.7 mb 0.02 in0.5 mm 0.00 in0.0 mm 0.11 in2.8 mm
06:39 AM 36.3°F2.4°C 35.6°F2.0°C 97% Calm Calm -- 29.64 in1003.7 mb 0.03 in0.8 mm 0.00 in0.0 mm 0.11 in2.8 mm
06:29 AM 36.3°F2.4°C 35.6°F2.0°C 97% Calm Calm -- 29.64 in1003.7 mb 0.03 in0.8 mm 0.00 in0.0 mm 0.11 in2.8 mm
06:19 AM 36.3°F2.4°C 35.6°F2.0°C 97% Calm Calm -- 29.63 in1003.4 mb 0.03 in0.8 mm 0.00 in0.0 mm 0.10 in2.5 mm
06:09 AM 36.3°F2.4°C 35.2°F1.8°C 96% Calm Calm -- 29.62 in1003.0 mb 0.04 in1.0 mm 0.00 in0.0 mm 0.10 in2.5 mm
05:59 AM 36.7°F2.6°C 36.0°F2.2°C 97% Calm Calm -- 29.62 in1003.0 mb 0.04 in1.0 mm 0.00 in0.0 mm 0.10 in2.5 mm
05:49 AM 36.7°F2.6°C 36.0°F2.2°C 97% Calm Calm -- 29.62 in1003.0 mb 0.04 in1.0 mm 0.00 in0.0 mm 0.09 in2.3 mm
05:39 AM 36.9°F2.7°C 36.1°F2.3°C 97% Calm Calm -- 29.63 in1003.4 mb 0.04 in1.0 mm 0.00 in0.0 mm 0.08 in2.0 mm
05:29 AM 36.9°F2.7°C 36.1°F2.3°C 97% Calm Calm -- 29.63 in1003.4 mb 0.04 in1.0 mm 0.00 in0.0 mm 0.08 in2.0 mm
05:19 AM 36.9°F2.7°C 36.1°F2.3°C 97% Calm Calm -- 29.63 in1003.4 mb 0.04 in1.0 mm 0.06 in1.5 mm 0.07 in1.8 mm
05:09 AM 37.0°F2.8°C 36.3°F2.4°C 97% Calm Calm -- 29.63 in1003.4 mb 0.03 in0.8 mm 0.00 in0.0 mm 0.07 in1.8 mm
04:59 AM 37.0°F2.8°C 36.3°F2.4°C 97% Calm Calm -- 29.63 in1003.4 mb 0.04 in1.0 mm 0.06 in1.5 mm 0.06 in1.5 mm
04:49 AM 37.0°F2.8°C 36.3°F2.4°C 97% Calm Calm -- 29.64 in1003.7 mb 0.03 in0.8 mm 0.00 in0.0 mm 0.05 in1.3 mm
04:39 AM 37.2°F2.9°C 36.5°F2.5°C 97% Calm Calm -- 29.64 in1003.7 mb 0.03 in0.8 mm 0.00 in0.0 mm 0.05 in1.3 mm
04:29 AM 37.6°F3.1°C 36.9°F2.7°C 97% Calm Calm -- 29.63 in1003.4 mb 0.03 in0.8 mm 0.06 in1.5 mm 0.04 in1.0 mm
04:19 AM 37.4°F3.0°C 36.7°F2.6°C 97% Calm Calm -- 29.64 in1003.7 mb 0.02 in0.5 mm 0.00 in0.0 mm 0.03 in0.8 mm
04:09 AM 37.4°F3.0°C 36.7°F2.6°C 97% Calm Calm -- 29.64 in1003.7 mb 0.02 in0.5 mm 0.01 in0.3 mm 0.03 in0.8 mm
03:59 AM 37.6°F3.1°C 36.9°F2.7°C 97% Calm Calm -- 29.65 in1004.1 mb 0.01 in0.3 mm 0.00 in0.0 mm 0.02 in0.5 mm
03:49 AM 37.4°F3.0°C 36.7°F2.6°C 97% Calm Calm 1.0 mph1.6 kmh 29.65 in1004.1 mb 0.01 in0.3 mm 0.06 in1.5 mm 0.02 in0.5 mm
03:39 AM 36.9°F2.7°C 36.1°F2.3°C 97% Calm Calm -- 29.65 in1004.1 mb 0.00 in0.0 mm 0.00 in0.0 mm 0.01 in0.3 mm
03:29 AM 36.1°F2.3°C 35.4°F1.9°C 97% Calm Calm -- 29.65 in1004.1 mb 0.00 in0.0 mm 0.00 in0.0 mm 0.01 in0.3 mm
03:19 AM 35.1°F1.7°C 34.0°F1.1°C 96% Calm Calm -- 29.66 in1004.4 mb 0.01 in0.3 mm 0.00 in0.0 mm 0.01 in0.3 mm
03:09 AM 35.1°F1.7°C 34.0°F1.1°C 96% Calm Calm -- 29.65 in1004.1 mb 0.01 in0.3 mm 0.00 in0.0 mm 0.01 in0.3 mm
02:59 AM 35.2°F1.8°C 34.5°F1.4°C 97% Calm Calm -- 29.66 in1004.4 mb 0.01 in0.3 mm 0.00 in0.0 mm 0.01 in0.3 mm
02:49 AM 35.2°F1.8°C 34.5°F1.4°C 97% Calm Calm -- 29.66 in1004.4 mb 0.01 in0.3 mm 0.00 in0.0 mm 0.01 in0.3 mm
02:39 AM 35.2°F1.8°C 34.5°F1.4°C 97% Calm Calm -- 29.66 in1004.4 mb 0.01 in0.3 mm 0.00 in0.0 mm 0.01 in0.3 mm
02:29 AM 35.1°F1.7°C 34.3°F1.3°C 97% Calm Calm -- 29.67 in1004.7 mb 0.01 in0.3 mm 0.06 in1.5 mm 0.01 in0.3 mm
02:19 AM 34.9°F1.6°C 34.2°F1.2°C 97% Calm Calm -- 29.68 in1005.1 mb 0.00 in0.0 mm 0.00 in0.0 mm 0.00 in0.0 mm
02:09 AM 34.5°F1.4°C 33.8°F1.0°C 97% Calm Calm -- 29.67 in1004.7 mb 0.00 in0.0 mm 0.00 in0.0 mm 0.00 in0.0 mm
01:59 AM 33.6°F0.9°C 32.5°F0.3°C 96% Calm Calm -- 29.68 in1005.1 mb 0.00 in0.0 mm 0.00 in0.0 mm 0.00 in0.0 mm
01:49 AM 33.1°F0.6°C 32.0°F0.0°C 96% Calm Calm -- 29.68 in1005.1 mb 0.00 in0.0 mm 0.00 in0.0 mm 0.00 in0.0 mm
01:39 AM 32.7°F0.4°C 31.6°F-0.2°C 96% Calm Calm -- 29.68 in1005.1 mb 0.00 in0.0 mm 0.00 in0.0 mm 0.00 in0.0 mm
01:29 AM 32.9°F0.5°C 31.8°F-0.1°C 96% Calm Calm -- 29.69 in1005.4 mb 0.00 in0.0 mm 0.00 in0.0 mm 0.00 in0.0 mm
01:19 AM 33.1°F0.6°C 32.0°F0.0°C 96% Calm Calm -- 29.68 in1005.1 mb 0.00 in0.0 mm 0.00 in0.0 mm 0.00 in0.0 mm
01:09 AM 33.1°F0.6°C 32.0°F0.0°C 96% Calm Calm -- 29.69 in1005.4 mb 0.00 in0.0 mm 0.00 in0.0 mm 0.00 in0.0 mm
12:59 AM 33.1°F0.6°C 32.0°F0.0°C 96% Calm Calm -- 29.70 in1005.8 mb 0.00 in0.0 mm 0.00 in0.0 mm 0.00 in0.0 mm
12:49 AM 33.1°F0.6°C 32.0°F0.0°C 96% Calm Calm -- 29.70 in1005.8 mb 0.00 in0.0 mm 0.00 in0.0 mm 0.00 in0.0 mm
12:39 AM 32.9°F0.5°C 31.8°F-0.1°C 96% Calm Calm -- 29.72 in1006.4 mb 0.00 in0.0 mm 0.00 in0.0 mm 0.00 in0.0 mm
12:29 AM 32.9°F0.5°C 31.8°F-0.1°C 96% Calm Calm -- 29.73 in1006.8 mb 0.00 in0.0 mm 0.00 in0.0 mm 0.00 in0.0 mm
12:19 AM 32.9°F0.5°C 31.8°F-0.1°C 96% Calm Calm -- 29.74 in1007.1 mb 0.00 in0.0 mm 0.00 in0.0 mm 0.00 in0.0 mm
12:09 AM 33.1°F0.6°C 32.0°F0.0°C 96% Calm Calm -- 29.76 in1007.8 mb 0.00 in0.0 mm 0.00 in0.0 mm 0.00 in0.0 mm